Time;durP1;ratioP1;P1;durP2;ratioP2;P2;SDS_P1;SDS_P2;PMS_P1;PMS_P2;Temp;Humidity;BMP_temperature;BMP_pressure;BME280_temperature;BME280_humidity;BME280_pressure;Samples;Min_cycle;Max_cycle;Signal;HPM_P1;HPM_P2
2021/03/14 00:01:20;;;;;;;1.30;0.97;;;2.60;99.90;;;;;;5098907;28;20172;-40
2021/03/14 00:03:46;;;;;;;2.10;1.00;;;3.40;99.90;;;;;;5097674;28;20229;-40
2021/03/14 00:06:12;;;;;;;3.20;1.00;;;4.00;99.90;;;;;;5098477;28;20212;-39
2021/03/14 00:08:37;;;;;;;2.47;0.93;;;4.60;99.90;;;;;;5098112;28;20200;-42
2021/03/14 00:11:05;;;;;;;1.00;0.80;;;4.40;99.90;;;;;;5080427;28;20180;-42
2021/03/14 00:13:36;;;;;;;1.10;0.90;;;4.10;99.90;;;;;;5098371;28;20184;-41
2021/03/14 00:16:03;;;;;;;0.90;0.70;;;3.70;99.90;;;;;;5098600;28;20474;-41
2021/03/14 00:18:34;;;;;;;1.00;0.50;;;3.40;99.90;;;;;;5098452;28;20437;-40
2021/03/14 00:21:00;;;;;;;1.10;0.90;;;3.00;99.90;;;;;;5097547;28;20426;-41
2021/03/14 00:23:27;;;;;;;1.33;0.93;;;3.00;99.90;;;;;;5098620;28;20499;-41
2021/03/14 00:25:55;;;;;;;1.63;1.03;;;2.80;99.90;;;;;;5097995;28;20458;-40
2021/03/14 00:28:21;;;;;;;4.03;0.70;;;2.80;99.90;;;;;;5097663;28;20847;-41
2021/03/14 00:31:10;;;;;;;0.80;0.60;;;2.70;99.90;;;;;;5091302;28;20841;-42
2021/03/14 00:33:36;;;;;;;2.57;0.70;;;2.60;99.90;;;;;;5055039;28;20416;-39
2021/03/14 00:36:02;;;;;;;1.37;0.77;;;2.70;99.90;;;;;;5055640;28;20435;-37
2021/03/14 00:38:27;;;;;;;2.70;0.77;;;2.60;99.90;;;;;;5055491;28;20193;-39
2021/03/14 00:40:53;;;;;;;1.43;0.90;;;2.40;99.90;;;;;;5055478;28;20189;-39
2021/03/14 00:43:19;;;;;;;1.27;0.70;;;2.30;99.90;;;;;;5055936;28;20178;-41
2021/03/14 00:45:44;;;;;;;1.77;0.97;;;2.10;99.90;;;;;;5056001;28;20607;-41
2021/03/14 00:48:10;;;;;;;1.03;0.70;;;1.90;99.90;;;;;;5056462;28;20193;-41
2021/03/14 00:50:38;;;;;;;3.23;0.87;;;1.90;99.90;;;;;;5056492;28;20575;-40
2021/03/14 00:53:04;;;;;;;1.07;0.77;;;1.80;99.90;;;;;;5063802;28;20621;-41
2021/03/14 00:55:30;;;;;;;1.40;0.60;;;1.70;99.90;;;;;;5059224;28;20436;-41
2021/03/14 00:57:55;;;;;;;1.10;0.60;;;1.80;99.90;;;;;;5056306;28;20466;-40
2021/03/14 01:00:22;;;;;;;1.20;0.83;;;1.80;99.90;;;;;;5055319;28;20194;-40
2021/03/14 01:02:47;;;;;;;1.10;0.80;;;1.60;99.90;;;;;;5054581;28;20449;-37
2021/03/14 01:05:13;;;;;;;1.13;0.80;;;1.70;99.90;;;;;;5054835;28;20530;-40
2021/03/14 01:07:38;;;;;;;1.13;0.60;;;1.80;99.90;;;;;;5054322;28;20205;-40
2021/03/14 01:10:06;;;;;;;1.33;0.70;;;1.80;99.90;;;;;;5054973;28;20603;-41
2021/03/14 01:12:32;;;;;;;1.67;0.63;;;1.90;99.90;;;;;;5054929;28;20233;-38
2021/03/14 01:14:58;;;;;;;1.10;0.60;;;2.00;99.90;;;;;;5055042;28;20537;-42
2021/03/14 01:17:24;;;;;;;0.70;0.30;;;2.00;99.90;;;;;;5076490;28;20202;-42
2021/03/14 01:19:50;;;;;;;0.80;0.40;;;1.90;99.90;;;;;;5097826;28;20422;-41
2021/03/14 01:22:15;;;;;;;0.70;0.40;;;1.90;99.90;;;;;;5098106;28;20206;-41
2021/03/14 01:24:41;;;;;;;0.83;0.50;;;1.90;99.90;;;;;;5097545;28;20613;-40
2021/03/14 01:27:07;;;;;;;0.67;0.40;;;1.80;99.90;;;;;;5097869;28;20270;-41
2021/03/14 01:29:32;;;;;;;1.80;0.40;;;1.80;99.90;;;;;;5079996;28;20192;-42
2021/03/14 01:31:58;;;;;;;0.60;0.30;;;1.90;99.90;;;;;;5097420;28;20625;-42
2021/03/14 01:34:24;;;;;;;1.17;0.60;;;1.80;99.90;;;;;;5097695;28;20489;-42
2021/03/14 01:36:49;;;;;;;0.80;0.50;;;1.80;99.90;;;;;;5097858;28;20275;-40
2021/03/14 01:39:15;;;;;;;0.60;0.33;;;1.90;99.90;;;;;;5079721;28;20193;-41
2021/03/14 01:41:41;;;;;;;0.70;0.43;;;1.80;99.90;;;;;;5080183;28;20192;-41
2021/03/14 01:44:07;;;;;;;0.70;0.30;;;1.90;99.90;;;;;;5097620;28;20466;-42
2021/03/14 01:46:33;;;;;;;0.83;0.47;;;1.90;99.90;;;;;;5097414;28;20430;-41
2021/03/14 01:48:59;;;;;;;0.80;0.40;;;1.90;99.90;;;;;;5097543;28;20521;-40
2021/03/14 01:51:25;;;;;;;0.60;0.27;;;1.90;99.90;;;;;;5079276;28;20457;-42
2021/03/14 01:53:52;;;;;;;0.70;0.30;;;1.90;99.90;;;;;;5097456;28;20840;-38
2021/03/14 01:56:17;;;;;;;0.90;0.30;;;1.80;99.90;;;;;;5097445;28;20192;-40
2021/03/14 01:58:47;;;;;;;0.70;0.50;;;1.80;99.90;;;;;;5097185;28;20674;-40
2021/03/14 02:01:13;;;;;;;0.60;0.30;;;1.80;99.90;;;;;;5097431;28;20191;-41
2021/03/14 02:03:39;;;;;;;0.67;0.30;;;1.80;99.90;;;;;;5097573;28;20418;-39
2021/03/14 02:06:04;;;;;;;1.20;0.43;;;2.70;99.90;;;;;;5096911;28;20462;-40
2021/03/14 02:08:30;;;;;;;2.33;0.50;;;3.90;99.90;;;;;;5096870;28;20173;-40
2021/03/14 02:10:56;;;;;;;1.80;0.50;;;4.70;99.90;;;;;;5099712;28;20187;-41
2021/03/14 02:13:28;;;;;;;0.70;0.33;;;3.70;99.90;;;;;;5101028;28;20233;-42
2021/03/14 02:16:16;;;;;;;0.70;0.40;;;3.00;99.90;;;;;;5094298;28;20240;-41
2021/03/14 02:18:44;;;;;;;0.80;0.40;;;2.50;99.90;;;;;;5121984;28;20425;-42
2021/03/14 02:21:12;;;;;;;1.83;0.50;;;2.30;99.90;;;;;;5103834;28;20432;-39
2021/03/14 02:24:03;;;;;;;1.57;0.50;;;2.10;99.90;;;;;;5121557;28;20425;-40
2021/03/14 02:26:43;;;;;;;0.70;0.37;;;2.00;99.90;;;;;;5103940;28;20739;-41
2021/03/14 02:29:15;;;;;;;0.80;0.40;;;2.00;99.90;;;;;;5121880;28;20440;-41
2021/03/14 02:31:41;;;;;;;0.70;0.40;;;2.00;99.90;;;;;;5103403;28;20426;-41
2021/03/14 02:34:10;;;;;;;0.60;0.30;;;1.90;99.90;;;;;;5121662;28;20450;-42
2021/03/14 02:36:38;;;;;;;1.77;0.60;;;1.80;99.90;;;;;;5103330;28;20500;-38
2021/03/14 02:39:06;;;;;;;0.70;0.40;;;1.80;99.90;;;;;;5103034;28;20453;-41
2021/03/14 02:41:33;;;;;;;1.33;0.60;;;1.70;99.90;;;;;;5103098;28;20440;-42
2021/03/14 02:43:58;;;;;;;1.00;0.60;;;1.70;99.90;;;;;;5102777;28;20465;-40
2021/03/14 02:46:27;;;;;;;1.00;0.60;;;1.60;99.90;;;;;;5102826;28;20799;-39
2021/03/14 02:48:54;;;;;;;1.80;0.40;;;1.60;99.90;;;;;;5119838;28;20191;-41
2021/03/14 02:51:20;;;;;;;0.97;0.60;;;1.50;99.90;;;;;;5101895;28;20414;-41
2021/03/14 02:53:45;;;;;;;0.77;0.63;;;1.50;99.90;;;;;;5101998;28;20516;-40
2021/03/14 02:56:11;;;;;;;0.90;0.60;;;1.50;99.90;;;;;;5101672;28;20183;-41
2021/03/14 02:58:37;;;;;;;0.80;0.50;;;1.50;99.90;;;;;;5101716;28;20176;-39
2021/03/14 03:01:04;;;;;;;1.13;0.60;;;1.60;99.90;;;;;;5102296;28;20195;-40
2021/03/14 03:03:30;;;;;;;0.87;0.57;;;1.60;99.90;;;;;;5102575;28;20425;-41
2021/03/14 03:05:57;;;;;;;1.17;0.57;;;1.60;99.90;;;;;;5120911;28;21000;-41
2021/03/14 03:08:24;;;;;;;0.80;0.60;;;1.70;99.90;;;;;;5119618;28;20479;-40
2021/03/14 03:10:50;;;;;;;0.90;0.60;;;1.60;99.90;;;;;;5119717;28;20448;-40
2021/03/14 03:13:16;;;;;;;1.03;0.50;;;1.60;99.90;;;;;;5119387;28;20443;-41
2021/03/14 03:15:43;;;;;;;0.90;0.67;;;1.70;99.90;;;;;;5101526;28;20747;-41
2021/03/14 03:18:09;;;;;;;1.00;0.70;;;1.60;99.90;;;;;;5101071;28;20423;-40
2021/03/14 03:20:35;;;;;;;1.40;0.93;;;1.60;99.90;;;;;;5119606;28;20429;-41
2021/03/14 03:23:01;;;;;;;1.30;0.70;;;1.60;99.90;;;;;;5108555;27;20713;-39
2021/03/14 03:25:27;;;;;;;0.80;0.63;;;1.60;99.90;;;;;;5133906;27;20511;-41
2021/03/14 03:27:52;;;;;;;1.53;0.90;;;1.60;99.90;;;;;;5121525;27;20413;-39
2021/03/14 03:30:20;;;;;;;0.90;0.70;;;1.60;99.90;;;;;;5128138;27;20184;-42
2021/03/14 03:32:47;;;;;;;0.90;0.70;;;1.70;99.90;;;;;;5119810;28;20576;-41
2021/03/14 03:35:14;;;;;;;0.70;0.50;;;1.70;99.90;;;;;;5119561;28;20429;-42
2021/03/14 03:37:40;;;;;;;0.87;0.57;;;1.70;99.90;;;;;;5120048;28;20428;-38
2021/03/14 03:40:08;;;;;;;0.90;0.70;;;1.60;99.90;;;;;;5119913;28;20421;-42
2021/03/14 03:42:40;;;;;;;1.13;0.60;;;1.60;99.90;;;;;;5102264;28;20462;-39
2021/03/14 03:45:08;;;;;;;0.80;0.60;;;1.60;99.90;;;;;;5120128;28;20510;-40
2021/03/14 03:47:34;;;;;;;1.00;0.60;;;1.50;99.90;;;;;;5120139;28;20425;-42
2021/03/14 03:50:01;;;;;;;1.60;0.90;;;1.60;99.90;;;;;;5102208;28;20494;-41
2021/03/14 03:52:26;;;;;;;1.20;1.00;;;1.60;99.90;;;;;;5101795;28;20978;-38
2021/03/14 03:54:53;;;;;;;1.00;0.80;;;1.60;99.90;;;;;;5119589;28;20425;-39
2021/03/14 03:57:20;;;;;;;1.40;0.90;;;1.70;99.90;;;;;;5101432;28;20608;-41
2021/03/14 03:59:47;;;;;;;1.43;0.80;;;1.70;99.90;;;;;;5100845;28;20413;-41
2021/03/14 04:02:13;;;;;;;1.00;0.80;;;1.70;99.90;;;;;;5101003;28;20421;-42
2021/03/14 04:04:40;;;;;;;1.40;1.23;;;1.70;99.90;;;;;;5100601;28;20464;-41
2021/03/14 04:07:08;;;;;;;1.13;0.90;;;1.70;99.90;;;;;;5100887;28;20514;-40
2021/03/14 04:09:34;;;;;;;1.93;1.10;;;1.80;99.90;;;;;;5101575;28;20414;-40
2021/03/14 04:12:00;;;;;;;1.83;1.00;;;1.70;99.90;;;;;;5101478;28;20699;-40
2021/03/14 04:14:27;;;;;;;1.60;1.17;;;1.80;99.90;;;;;;5101658;28;20546;-39
2021/03/14 04:16:53;;;;;;;1.20;0.90;;;1.70;99.90;;;;;;5101789;28;20501;-40
2021/03/14 04:19:21;;;;;;;1.53;1.00;;;1.70;99.90;;;;;;5101583;28;20815;-41
2021/03/14 04:21:48;;;;;;;1.50;1.20;;;1.60;99.90;;;;;;5100975;28;20478;-41
2021/03/14 04:24:14;;;;;;;1.30;0.87;;;1.60;99.90;;;;;;5101427;28;20861;-41
2021/03/14 04:26:46;;;;;;;4.93;1.20;;;1.60;99.90;;;;;;5099940;28;20978;-40
2021/03/14 04:29:13;;;;;;;1.20;0.97;;;1.60;99.90;;;;;;5117917;28;20765;-40
2021/03/14 04:31:46;;;;;;;1.90;1.00;;;1.40;99.90;;;;;;5118208;28;20449;-41
2021/03/14 04:34:14;;;;;;;1.30;1.10;;;1.40;99.90;;;;;;5098923;28;20987;-41
2021/03/14 04:36:40;;;;;;;1.30;1.03;;;1.40;99.90;;;;;;5099705;28;20524;-39
2021/03/14 04:39:06;;;;;;;1.20;0.70;;;1.40;99.90;;;;;;5117786;28;20452;-40
2021/03/14 04:41:34;;;;;;;1.30;1.03;;;1.50;99.90;;;;;;5100191;28;20695;-41
2021/03/14 04:44:00;;;;;;;1.30;1.00;;;1.50;99.90;;;;;;5118899;28;20831;-41
2021/03/14 04:46:26;;;;;;;1.30;1.00;;;1.50;99.90;;;;;;5100862;28;20461;-42
2021/03/14 04:48:59;;;;;;;1.17;0.73;;;1.50;99.90;;;;;;5110142;28;20567;-40
2021/03/14 04:51:30;;;;;;;1.53;0.87;;;1.40;99.90;;;;;;5100561;28;20955;-40
2021/03/14 04:53:57;;;;;;;1.30;0.87;;;1.40;99.90;;;;;;5118632;28;20757;-40
2021/03/14 04:56:23;;;;;;;1.40;1.07;;;1.30;99.90;;;;;;5118683;28;20890;-39
2021/03/14 04:58:50;;;;;;;1.40;1.00;;;1.30;99.90;;;;;;5100619;28;20422;-38
2021/03/14 05:01:18;;;;;;;2.13;1.00;;;1.30;99.90;;;;;;5118569;28;20512;-41
2021/03/14 05:03:46;;;;;;;1.57;0.90;;;1.30;99.90;;;;;;5100535;28;20485;-40
2021/03/14 05:06:16;;;;;;;1.53;0.87;;;1.30;99.90;;;;;;5083753;28;20864;-39
2021/03/14 05:08:42;;;;;;;1.93;0.60;;;1.30;99.90;;;;;;5100252;28;20421;-41
2021/03/14 05:11:08;;;;;;;1.10;0.80;;;1.30;99.90;;;;;;5100228;28;20414;-39
2021/03/14 05:13:35;;;;;;;1.57;1.23;;;1.30;99.90;;;;;;5100285;28;20780;-38
2021/03/14 05:16:01;;;;;;;0.90;0.53;;;1.20;99.90;;;;;;5099939;28;20480;-41
2021/03/14 05:18:26;;;;;;;1.20;0.80;;;1.20;99.90;;;;;;5100207;28;20819;-41
2021/03/14 05:20:52;;;;;;;1.77;0.90;;;1.20;99.90;;;;;;5118373;28;20175;-41
2021/03/14 05:23:18;;;;;;;1.50;1.10;;;1.20;99.90;;;;;;5100530;28;20176;-41
2021/03/14 05:25:44;;;;;;;1.03;0.73;;;1.30;99.90;;;;;;5100341;28;20203;-40
2021/03/14 05:28:12;;;;;;;1.30;0.80;;;1.30;99.90;;;;;;5118233;28;20426;-39
2021/03/14 05:30:38;;;;;;;1.47;0.60;;;1.40;99.90;;;;;;5118110;28;20414;-40
2021/03/14 05:33:04;;;;;;;0.80;0.70;;;1.40;99.90;;;;;;5118002;28;20594;-41
2021/03/14 05:35:31;;;;;;;2.10;1.10;;;1.40;99.90;;;;;;5118111;28;20418;-39
2021/03/14 05:37:58;;;;;;;1.50;1.00;;;1.40;99.90;;;;;;5116842;28;20463;-41
2021/03/14 05:40:25;;;;;;;1.50;1.03;;;1.50;99.90;;;;;;5117107;28;20415;-41
2021/03/14 05:42:52;;;;;;;1.23;0.90;;;1.50;99.90;;;;;;5116669;28;20537;-41
2021/03/14 05:45:18;;;;;;;1.73;1.10;;;1.50;99.90;;;;;;5118025;28;20476;-41
2021/03/14 05:47:45;;;;;;;1.20;1.00;;;1.60;99.90;;;;;;5121132;28;20412;-39
2021/03/14 05:50:14;;;;;;;2.33;1.50;;;1.60;99.90;;;;;;5120965;28;20471;-42
2021/03/14 05:52:42;;;;;;;2.40;1.50;;;1.60;99.90;;;;;;5103664;28;20500;-41
2021/03/14 05:55:17;;;;;;;2.30;1.50;;;1.60;99.90;;;;;;5121385;28;20491;-40
2021/03/14 05:57:47;;;;;;;2.50;1.67;;;1.60;99.90;;;;;;5122167;28;20416;-41
2021/03/14 06:00:22;;;;;;;3.20;1.60;;;1.60;99.90;;;;;;5122236;28;20512;-41
2021/03/14 06:02:48;;;;;;;2.50;1.80;;;1.60;99.90;;;;;;5121206;28;20504;-40
2021/03/14 06:05:14;;;;;;;2.20;2.00;;;1.60;99.90;;;;;;5104039;28;20572;-40
2021/03/14 06:07:40;;;;;;;3.70;1.93;;;1.60;99.90;;;;;;5121440;28;20558;-41
2021/03/14 06:10:06;;;;;;;4.40;1.83;;;1.60;99.90;;;;;;5121552;28;20420;-40
2021/03/14 06:12:32;;;;;;;4.07;2.10;;;1.60;99.90;;;;;;5103843;28;20180;-41
2021/03/14 06:14:58;;;;;;;2.80;2.03;;;1.70;99.90;;;;;;5121581;28;20620;-40
2021/03/14 06:17:26;;;;;;;5.10;2.20;;;1.80;99.90;;;;;;5121753;28;20214;-42
2021/03/14 06:19:52;;;;;;;2.73;1.70;;;1.80;99.90;;;;;;5120419;28;20524;-41
2021/03/14 06:22:21;;;;;;;2.80;2.30;;;1.70;99.90;;;;;;5102250;28;20500;-40
2021/03/14 06:24:48;;;;;;;4.77;2.37;;;1.80;99.90;;;;;;5120211;28;20583;-42
2021/03/14 06:27:53;;;;;;;3.40;1.90;;;1.80;99.90;;;;;;5120503;28;20512;-40
2021/03/14 06:30:28;;;;;;;4.00;2.30;;;1.70;99.90;;;;;;5120193;28;20417;-41
2021/03/14 06:33:07;;;;;;;5.87;2.70;;;1.80;99.90;;;;;;5119211;28;20405;-40
2021/03/14 06:35:45;;;;;;;4.50;2.40;;;1.80;99.90;;;;;;5121439;28;20435;-39
2021/03/14 06:38:24;;;;;;;5.03;2.70;;;1.80;99.90;;;;;;5121411;28;20421;-38
2021/03/14 06:41:01;;;;;;;5.10;2.73;;;1.80;99.90;;;;;;5121254;28;20413;-41
2021/03/14 06:43:57;;;;;;;3.60;1.93;;;1.80;99.90;;;;;;5121520;28;20511;-41
2021/03/14 06:46:30;;;;;;;8.50;4.40;;;1.80;99.90;;;;;;5099077;28;20767;-41
2021/03/14 06:49:06;;;;;;;10.57;5.30;;;1.90;99.90;;;;;;5120848;28;20904;-40
2021/03/14 06:51:40;;;;;;;10.13;4.37;;;1.80;99.90;;;;;;5119983;28;20827;-41
2021/03/14 06:54:39;;;;;;;10.97;5.17;;;1.90;99.90;;;;;;5119848;28;20428;-39
2021/03/14 06:57:14;;;;;;;10.20;5.40;;;1.90;99.90;;;;;;5118168;28;20490;-40
2021/03/14 06:59:43;;;;;;;7.50;3.80;;;1.90;99.90;;;;;;5102162;28;20520;-38
2021/03/14 07:02:12;;;;;;;5.87;2.70;;;1.90;99.90;;;;;;5120128;28;20413;-42
2021/03/14 07:04:39;;;;;;;10.10;4.37;;;2.00;99.90;;;;;;5120459;28;20468;-42
2021/03/14 07:07:05;;;;;;;6.43;3.73;;;2.10;99.90;;;;;;5102342;28;20422;-43
2021/03/14 07:09:32;;;;;;;5.03;2.70;;;2.10;99.90;;;;;;5120700;28;20703;-43
2021/03/14 07:11:59;;;;;;;5.20;2.67;;;2.20;99.90;;;;;;5120185;28;20418;-42
2021/03/14 07:14:26;;;;;;;5.77;2.43;;;2.30;99.90;;;;;;5120432;28;20413;-42
2021/03/14 07:16:57;;;;;;;5.17;2.50;;;2.30;99.90;;;;;;5120182;28;20576;-42
2021/03/14 07:19:25;;;;;;;5.23;3.00;;;2.50;99.90;;;;;;5120711;28;20413;-43
2021/03/14 07:22:02;;;;;;;2.90;2.30;;;2.40;99.90;;;;;;5120681;28;20676;-42
2021/03/14 07:24:37;;;;;;;5.23;1.90;;;2.60;99.90;;;;;;5120344;28;20489;-40
2021/03/14 07:27:05;;;;;;;7.17;2.30;;;2.70;99.90;;;;;;5120399;28;20409;-42
2021/03/14 07:29:33;;;;;;;5.10;1.60;;;2.80;99.90;;;;;;5120120;28;20970;-42
2021/03/14 07:31:59;;;;;;;5.63;2.50;;;2.80;99.90;;;;;;5120463;28;20417;-41
2021/03/14 07:34:25;;;;;;;4.00;1.70;;;2.80;99.80;;;;;;5120662;28;20426;-42
2021/03/14 07:36:52;;;;;;;4.93;1.90;;;2.80;99.90;;;;;;5120368;28;20263;-41
2021/03/14 07:39:18;;;;;;;4.47;1.97;;;3.10;99.90;;;;;;5120072;28;20413;-42
2021/03/14 07:41:45;;;;;;;5.20;2.20;;;2.90;99.60;;;;;;5119976;28;20405;-43
2021/03/14 07:44:11;;;;;;;4.87;2.47;;;2.90;99.90;;;;;;5120179;28;20414;-42
2021/03/14 07:46:41;;;;;;;3.63;2.07;;;2.90;99.90;;;;;;5119597;28;20529;-42
2021/03/14 07:49:06;;;;;;;9.43;2.53;;;2.70;99.70;;;;;;5119832;28;20429;-43
2021/03/14 07:51:33;;;;;;;6.53;2.10;;;2.80;99.90;;;;;;5101751;28;20406;-42
2021/03/14 07:54:04;;;;;;;5.10;2.07;;;2.70;99.90;;;;;;5101694;28;20230;-43
2021/03/14 07:56:34;;;;;;;4.43;1.80;;;2.60;99.90;;;;;;5119579;28;20413;-43
2021/03/14 07:58:59;;;;;;;7.40;2.30;;;2.50;99.90;;;;;;5101096;28;20425;-42
2021/03/14 08:01:31;;;;;;;7.97;2.33;;;2.50;99.90;;;;;;5119462;28;20421;-43
2021/03/14 08:03:59;;;;;;;4.33;1.90;;;2.70;99.90;;;;;;5118851;28;20190;-43
2021/03/14 08:06:44;;;;;;;9.17;2.73;;;2.80;99.90;;;;;;5117996;28;20465;-43
2021/03/14 08:09:11;;;;;;;4.43;2.10;;;3.10;99.90;;;;;;5117459;28;20428;-43
2021/03/14 08:11:37;;;;;;;3.60;2.07;;;3.40;99.60;;;;;;5117938;28;20834;-43
2021/03/14 08:14:03;;;;;;;4.13;2.23;;;3.70;99.00;;;;;;5117446;28;20681;-42
2021/03/14 08:16:31;;;;;;;4.67;2.13;;;4.00;98.30;;;;;;5117516;28;20457;-43
2021/03/14 08:18:59;;;;;;;5.70;2.97;;;4.10;97.50;;;;;;5117744;28;20737;-43
2021/03/14 08:21:28;;;;;;;4.67;2.33;;;4.20;98.20;;;;;;5084242;28;20417;-43
2021/03/14 08:23:56;;;;;;;5.33;2.50;;;4.30;97.70;;;;;;5101147;28;20463;-42
2021/03/14 08:26:24;;;;;;;2.53;1.80;;;4.60;97.40;;;;;;5119225;28;20530;-40
2021/03/14 08:29:05;;;;;;;3.93;2.20;;;4.60;96.90;;;;;;5118576;28;20418;-43
2021/03/14 08:31:43;;;;;;;4.53;3.17;;;5.30;97.40;;;;;;5118410;28;21177;-42
2021/03/14 08:34:25;;;;;;;4.47;1.80;;;6.90;94.70;;;;;;5117250;28;20417;-43
2021/03/14 08:36:52;;;;;;;3.87;1.97;;;7.00;92.00;;;;;;5117923;28;20410;-43
2021/03/14 08:39:31;;;;;;;4.57;1.93;;;6.70;90.90;;;;;;5117939;28;20828;-43
2021/03/14 08:42:01;;;;;;;3.73;1.53;;;6.10;91.90;;;;;;5118096;28;20413;-42
2021/03/14 08:44:35;;;;;;;4.50;2.30;;;5.40;92.70;;;;;;5117749;28;20418;-43
2021/03/14 08:47:10;;;;;;;5.80;2.03;;;5.50;93.80;;;;;;5118321;28;20515;-42
2021/03/14 08:49:38;;;;;;;5.13;1.70;;;5.20;93.20;;;;;;5118359;28;20903;-42
2021/03/14 08:52:05;;;;;;;5.00;1.60;;;4.90;93.50;;;;;;5118533;28;20457;-44
2021/03/14 08:54:42;;;;;;;2.70;1.43;;;4.70;93.50;;;;;;5118839;28;20417;-43
2021/03/14 08:57:10;;;;;;;3.90;1.40;;;4.70;94.10;;;;;;5118210;28;20449;-42
2021/03/14 08:59:48;;;;;;;3.53;1.30;;;4.80;94.80;;;;;;5118459;28;20699;-43
2021/03/14 09:02:23;;;;;;;5.03;1.40;;;4.70;94.60;;;;;;5117783;28;20505;-43
2021/03/14 09:04:49;;;;;;;7.27;1.83;;;4.40;95.20;;;;;;5118289;28;20495;-43
2021/03/14 09:07:15;;;;;;;2.73;1.30;;;4.20;96.00;;;;;;5118472;28;20822;-42
2021/03/14 09:09:41;;;;;;;2.63;1.23;;;4.30;95.80;;;;;;5118068;28;20182;-43
2021/03/14 09:12:14;;;;;;;5.10;1.90;;;4.20;96.20;;;;;;5118238;28;20409;-43
2021/03/14 09:14:46;;;;;;;3.27;1.50;;;4.20;96.80;;;;;;5117967;28;20422;-42
2021/03/14 09:17:13;;;;;;;2.20;1.17;;;4.10;96.40;;;;;;5117732;28;20421;-43
2021/03/14 09:19:42;;;;;;;4.37;1.67;;;4.30;96.60;;;;;;5117600;28;20445;-43
2021/03/14 09:22:12;;;;;;;2.20;0.93;;;4.40;97.30;;;;;;5117117;28;20405;-46
2021/03/14 09:24:42;;;;;;;2.13;1.30;;;4.20;96.10;;;;;;5117351;28;20417;-43
2021/03/14 09:27:23;;;;;;;3.17;1.30;;;4.00;96.50;;;;;;5118159;28;20406;-42
2021/03/14 09:29:55;;;;;;;2.40;1.20;;;3.80;96.20;;;;;;5100397;27;20715;-42
2021/03/14 09:32:22;;;;;;;3.57;1.47;;;3.70;97.30;;;;;;5133000;28;20519;-42
2021/03/14 09:34:49;;;;;;;5.50;1.50;;;3.90;97.00;;;;;;5138709;28;20412;-44
2021/03/14 09:37:31;;;;;;;3.97;1.30;;;3.90;96.90;;;;;;5139113;28;20421;-42
2021/03/14 09:40:14;;;;;;;2.70;1.37;;;4.00;96.80;;;;;;5137611;28;20848;-43
2021/03/14 09:42:41;;;;;;;1.90;1.03;;;4.10;96.80;;;;;;5139078;28;20417;-44
2021/03/14 09:45:09;;;;;;;1.57;1.07;;;4.80;96.10;;;;;;5137752;28;20625;-43
2021/03/14 09:47:35;;;;;;;3.63;1.50;;;5.70;94.40;;;;;;5119369;28;20428;-43
2021/03/14 09:50:06;;;;;;;2.90;1.07;;;7.00;92.80;;;;;;5138209;28;20884;-43
2021/03/14 09:52:33;;;;;;;1.90;1.13;;;8.10;90.10;;;;;;5120685;28;20446;-43
2021/03/14 09:54:58;;;;;;;1.87;1.30;;;7.90;88.50;;;;;;5119802;28;20431;-41
2021/03/14 09:57:24;;;;;;;1.87;1.00;;;8.30;87.50;;;;;;5137881;28;20429;-42
2021/03/14 09:59:50;;;;;;;1.80;1.10;;;7.10;87.20;;;;;;5138008;28;20175;-43
2021/03/14 10:02:16;;;;;;;3.03;1.03;;;6.80;90.70;;;;;;5137689;28;20183;-41
2021/03/14 10:04:49;;;;;;;3.57;1.20;;;6.00;90.80;;;;;;5119220;28;20566;-43
2021/03/14 10:07:22;;;;;;;2.80;1.00;;;6.00;91.30;;;;;;5138399;28;20440;-44
2021/03/14 10:09:48;;;;;;;2.70;1.10;;;6.10;92.20;;;;;;5138217;28;20475;-43
2021/03/14 10:12:14;;;;;;;2.30;1.37;;;6.10;91.80;;;;;;5119774;28;20835;-41
2021/03/14 10:14:40;;;;;;;1.83;1.00;;;6.10;90.90;;;;;;5138045;28;20833;-41
2021/03/14 10:17:06;;;;;;;5.47;2.00;;;5.60;91.30;;;;;;5138560;28;20408;-42
2021/03/14 10:19:31;;;;;;;2.57;1.50;;;5.40;91.10;;;;;;5138183;28;20206;-41
2021/03/14 10:21:57;;;;;;;2.80;1.30;;;5.40;91.40;;;;;;5120125;28;20457;-41
2021/03/14 10:24:25;;;;;;;1.90;1.60;;;4.90;91.80;;;;;;5138094;28;20179;-42
2021/03/14 10:27:01;;;;;;;4.07;1.73;;;4.80;92.60;;;;;;5138136;28;20205;-42
2021/03/14 10:29:32;;;;;;;2.60;1.50;;;4.70;92.70;;;;;;5138200;28;20425;-42
2021/03/14 10:31:59;;;;;;;5.43;1.00;;;4.90;93.10;;;;;;5140278;27;20412;-42
2021/03/14 10:34:25;;;;;;;5.57;1.50;;;4.90;92.30;;;;;;5141728;27;20432;-42
2021/03/14 10:36:52;;;;;;;2.83;1.97;;;4.70;92.50;;;;;;5142066;27;20420;-43
2021/03/14 10:39:44;;;;;;;4.33;1.40;;;4.70;92.50;;;;;;5141692;27;20439;-43
2021/03/14 10:42:09;;;;;;;4.77;1.43;;;5.00;92.40;;;;;;5116833;28;20440;-41
2021/03/14 10:44:35;;;;;;;4.57;1.43;;;5.30;91.40;;;;;;5121057;28;20417;-43
2021/03/14 10:47:01;;;;;;;4.53;1.30;;;5.40;91.40;;;;;;5120945;28;20565;-43
2021/03/14 10:49:28;;;;;;;3.70;2.00;;;5.00;90.60;;;;;;5102729;28;20282;-42
2021/03/14 10:51:59;;;;;;;4.80;1.53;;;4.90;91.60;;;;;;5120445;28;20171;-42
2021/03/14 10:54:35;;;;;;;3.10;1.00;;;5.60;91.80;;;;;;5121115;28;20425;-43
2021/03/14 10:57:01;;;;;;;4.17;1.43;;;5.90;87.90;;;;;;5121381;27;20512;-42
2021/03/14 10:59:33;;;;;;;6.53;1.47;;;5.50;88.00;;;;;;5139317;27;20524;-42
2021/03/14 11:02:12;;;;;;;4.60;1.40;;;5.40;87.20;;;;;;5136485;27;20504;-43
2021/03/14 11:04:37;;;;;;;4.37;1.27;;;5.70;85.90;;;;;;5119901;28;20433;-43
2021/03/14 11:07:25;;;;;;;2.00;0.80;;;5.70;86.80;;;;;;5118922;28;20807;-43
2021/03/14 11:10:03;;;;;;;2.17;1.60;;;5.70;85.80;;;;;;5120105;28;20425;-43
2021/03/14 11:12:33;;;;;;;6.00;1.60;;;5.40;86.60;;;;;;5120361;28;20402;-42
2021/03/14 11:14:59;;;;;;;2.20;1.53;;;5.50;87.80;;;;;;5119605;28;20584;-43
2021/03/14 11:17:38;;;;;;;3.00;1.37;;;5.50;87.10;;;;;;5119726;28;20492;-42
2021/03/14 11:20:06;;;;;;;1.90;1.10;;;5.50;85.90;;;;;;5119888;28;20278;-43
2021/03/14 11:22:32;;;;;;;1.83;1.23;;;6.00;86.70;;;;;;5101092;28;20413;-43
2021/03/14 11:24:57;;;;;;;3.00;1.40;;;7.00;86.00;;;;;;5117827;28;20583;-42
2021/03/14 11:27:23;;;;;;;2.60;1.13;;;8.30;81.20;;;;;;5135392;27;20497;-42
2021/03/14 11:29:49;;;;;;;1.77;1.30;;;8.70;75.30;;;;;;5139009;27;20515;-42
2021/03/14 11:32:14;;;;;;;5.30;1.10;;;7.90;73.40;;;;;;5139392;27;20445;-43
2021/03/14 11:34:41;;;;;;;5.53;1.50;;;8.00;75.00;;;;;;5138393;27;20244;-43
2021/03/14 11:37:08;;;;;;;3.37;1.50;;;7.60;75.90;;;;;;5138280;27;20553;-42
2021/03/14 11:39:34;;;;;;;3.50;1.73;;;7.20;77.00;;;;;;5138744;27;20429;-42
2021/03/14 11:41:59;;;;;;;3.07;1.27;;;6.90;79.20;;;;;;5139065;27;20453;-42
2021/03/14 11:44:25;;;;;;;2.90;1.13;;;6.40;79.60;;;;;;5137640;27;20452;-42
2021/03/14 11:46:51;;;;;;;3.07;1.13;;;6.40;80.90;;;;;;5137606;27;20191;-43
2021/03/14 11:49:17;;;;;;;4.37;1.23;;;6.30;83.00;;;;;;5138210;27;20251;-41
2021/03/14 11:51:42;;;;;;;4.90;1.40;;;6.20;82.90;;;;;;5139911;27;20235;-43
2021/03/14 11:54:11;;;;;;;2.70;1.10;;;6.40;84.00;;;;;;5138931;27;20719;-43
2021/03/14 11:56:37;;;;;;;3.30;1.00;;;6.20;82.70;;;;;;5138727;27;20467;-43
2021/03/14 11:59:03;;;;;;;5.67;1.30;;;7.20;91.60;;;;;;5137329;27;20428;-43
2021/03/14 12:01:29;;;;;;;2.37;1.40;;;8.10;91.80;;;;;;5137848;27;20176;-43
2021/03/14 12:03:54;;;;;;;1.90;1.20;;;9.20;89.60;;;;;;5137420;27;20837;-43
2021/03/14 12:06:20;;;;;;;2.40;1.20;;;8.80;78.10;;;;;;5138070;27;20294;-43
2021/03/14 12:08:46;;;;;;;2.90;1.90;;;6.80;81.70;;;;;;5138045;27;20180;-42
2021/03/14 12:11:12;;;;;;;4.43;1.37;;;5.40;89.30;;;;;;5137439;27;20432;-43
2021/03/14 12:13:38;;;;;;;7.10;1.70;;;5.00;91.90;;;;;;5138637;27;20684;-43
2021/03/14 12:16:05;;;;;;;5.80;1.50;;;4.70;93.30;;;;;;5139037;27;20479;-43
2021/03/14 12:18:30;;;;;;;5.90;1.93;;;4.70;93.90;;;;;;5138932;27;20187;-43
2021/03/14 12:20:57;;;;;;;5.93;1.50;;;4.70;94.40;;;;;;5138916;27;20424;-41
2021/03/14 12:23:23;;;;;;;6.93;2.03;;;4.50;95.10;;;;;;5138610;27;20194;-41
2021/03/14 12:25:48;;;;;;;3.93;1.43;;;4.30;95.90;;;;;;5138068;27;20456;-43
2021/03/14 12:28:14;;;;;;;4.70;1.70;;;4.10;96.80;;;;;;5139183;27;20468;-42
2021/03/14 12:30:40;;;;;;;5.10;2.00;;;4.30;97.10;;;;;;5121574;27;20167;-42
2021/03/14 12:33:06;;;;;;;4.70;2.20;;;4.20;97.60;;;;;;5139341;27;20175;-43
2021/03/14 12:35:32;;;;;;;7.47;2.00;;;4.10;98.20;;;;;;5138731;27;20443;-43
2021/03/14 12:37:58;;;;;;;3.93;1.80;;;4.30;98.30;;;;;;5138812;27;20464;-42
2021/03/14 12:40:25;;;;;;;7.73;2.63;;;4.20;98.00;;;;;;5135906;27;20433;-44
2021/03/14 12:42:51;;;;;;;5.27;1.63;;;4.30;98.30;;;;;;5122488;27;20179;-43
2021/03/14 12:45:19;;;;;;;3.17;1.43;;;4.30;98.60;;;;;;5137138;27;20464;-43
2021/03/14 12:47:45;;;;;;;5.13;2.23;;;4.20;98.20;;;;;;5119568;27;20488;-44
2021/03/14 12:50:12;;;;;;;7.57;1.73;;;4.10;98.30;;;;;;5122849;27;20463;-43
2021/03/14 12:52:38;;;;;;;4.13;1.97;;;4.20;98.80;;;;;;5137665;27;20266;-44
2021/03/14 12:55:05;;;;;;;4.07;1.80;;;4.40;99.00;;;;;;5118962;27;20921;-43
2021/03/14 12:57:30;;;;;;;7.40;2.70;;;4.70;99.10;;;;;;5138011;27;20503;-46
2021/03/14 12:59:56;;;;;;;7.40;5.07;;;4.90;97.80;;;;;;5137948;27;20519;-43
2021/03/14 13:02:22;;;;;;;9.47;5.80;;;5.00;97.40;;;;;;5120028;27;20199;-43
2021/03/14 13:04:47;;;;;;;11.13;4.70;;;5.20;97.30;;;;;;5137669;27;20191;-44